»·PEaware :: SWA190 KSAN-KLAS

SWA190 :: KSAN-KLAS

FLIGHT INFORMATION

Flight Status: Arrived
Operator:
Southwest Airlines
More flights by this operator :: More flights under this callsign
Pilot: Samuel L. (16577)
Aircraft: BOEING 737-800
(B738)
More flights by this aircraft type
Origin: KSAN San Diego Intl-Lindbergh
United States
Destination: KLAS McCarran Intl
United States
More flights between these airports :: More routes between these airports
Route: PADRZ2 CHKNN DCT SEBBY DCT YELAH DCT MISEN KEPEC6
File this flight plan on PilotEdge
Remarks: First Flight On PE for 7 months
Altitude:
(Current/Filed)
29,000ft
Speed:
(Current/Filed)
455kts
Departed: 29-Jan-20 08:54 AM
Arrived: 29-Jan-20 09:46 AM
Distance/Time
Traveled:
225nm/0:52
Distance/Time
To Go:
Arrived

Flight Plot

Page will automatically refresh every two minutes.

Flight plan parsing failed; only flown route is shown


Map Options




Map Legend


Flown Route
Filed Route
Departure Airport
Arrival Airport
Navaid (VOR, NDB)
Fix

Horizontal Profiles

Position Reports

Time Latitude Longitude Heading Altitude Ground
Speed
29-Jan-20 08:11 32.733136 -117.195607 227 24ft 0kts
29-Jan-20 08:12 32.733136 -117.195607 227 24ft 0kts
29-Jan-20 08:13 32.733136 -117.195607 227 24ft 0kts
29-Jan-20 08:14 32.733136 -117.195607 227 24ft 0kts
29-Jan-20 08:15 32.733136 -117.195607 227 24ft 0kts
29-Jan-20 08:16 32.733136 -117.195607 227 24ft 0kts
29-Jan-20 08:17 32.733136 -117.195607 227 24ft 0kts
29-Jan-20 08:18 32.733136 -117.195607 227 24ft 0kts
29-Jan-20 08:21 32.733136 -117.195607 227 24ft 0kts
29-Jan-20 08:22 32.733136 -117.195607 227 24ft 0kts
29-Jan-20 08:26 32.733136 -117.195607 227 24ft 0kts
29-Jan-20 08:26 32.733136 -117.195607 227 24ft 0kts
29-Jan-20 08:28 32.733136 -117.195607 227 24ft 0kts
29-Jan-20 08:29 32.733136 -117.195607 227 24ft 0kts
29-Jan-20 08:29 32.733136 -117.195607 227 24ft 0kts
29-Jan-20 08:30 32.733136 -117.195607 227 24ft 0kts
29-Jan-20 08:32 32.733136 -117.195607 227 24ft 0kts
29-Jan-20 08:32 32.733136 -117.195607 227 24ft 0kts
29-Jan-20 08:33 32.733136 -117.195607 227 24ft 0kts
29-Jan-20 08:34 32.733136 -117.195607 227 24ft 0kts
29-Jan-20 08:35 32.733136 -117.195607 227 24ft 0kts
29-Jan-20 08:36 32.733136 -117.195607 227 24ft 0kts
29-Jan-20 08:37 32.733136 -117.195607 227 24ft 0kts
29-Jan-20 08:38 32.733136 -117.195607 227 24ft 0kts
29-Jan-20 08:39 32.733136 -117.195607 227 24ft 0kts
29-Jan-20 08:40 32.733136 -117.195606 227 24ft 0kts
29-Jan-20 08:41 32.733136 -117.195606 227 24ft 0kts
29-Jan-20 08:42 32.733525 -117.195103 227 24ft 1kts
29-Jan-20 08:43 32.733860 -117.195188 105 24ft 1kts
29-Jan-20 08:44 32.733865 -117.195209 106 24ft 0kts
29-Jan-20 08:45 32.733865 -117.195209 106 24ft 0kts
29-Jan-20 08:46 32.733865 -117.195209 106 24ft 0kts
29-Jan-20 08:47 32.733865 -117.195209 106 24ft 0kts
29-Jan-20 08:48 32.733236 -117.192598 106 24ft 20kts
29-Jan-20 08:49 32.731203 -117.184219 106 22ft 26kts
29-Jan-20 08:50 32.729482 -117.176859 82 26ft 10kts
29-Jan-20 08:51 32.729502 -117.176729 77 26ft 0kts
29-Jan-20 08:52 32.730058 -117.175346 288 29ft 3kts
29-Jan-20 08:53 32.738798 -117.210663 286 1005ft 164kts
29-Jan-20 08:54 32.769025 -117.263380 303 3172ft 232kts
29-Jan-20 08:55 32.807597 -117.331485 310 6654ft 257kts
29-Jan-20 08:56 32.851568 -117.398915 310 10222ft 264kts
29-Jan-20 08:57 32.901366 -117.476140 310 12175ft 320kts
29-Jan-20 08:58 32.955789 -117.560951 311 15240ft 326kts
29-Jan-20 08:59 33.010926 -117.646958 312 18041ft 330kts
29-Jan-20 09:00 33.068768 -117.733980 320 20332ft 337kts
29-Jan-20 09:01 33.140634 -117.807679 324 22459ft 346kts
29-Jan-20 09:02 33.215316 -117.883098 326 24385ft 356kts
29-Jan-20 09:03 33.302294 -117.930691 3 26099ft 356kts
29-Jan-20 09:04 33.399150 -117.897707 8 27718ft 365kts
29-Jan-20 09:05 33.500417 -117.878723 5 29040ft 373kts
29-Jan-20 09:06 33.604930 -117.860755 6 29080ft 383kts
29-Jan-20 09:07 33.710454 -117.842559 6 29078ft 383kts
29-Jan-20 09:08 33.815796 -117.824376 6 29075ft 383kts
29-Jan-20 09:09 33.921013 -117.806193 6 29073ft 383kts
29-Jan-20 09:10 34.026620 -117.787918 6 29071ft 382kts
29-Jan-20 09:11 34.120206 -117.728338 38 29091ft 405kts
29-Jan-20 09:12 34.194288 -117.624339 41 29089ft 407kts
29-Jan-20 09:13 34.266255 -117.518851 41 29088ft 406kts
29-Jan-20 09:14 34.337714 -117.413847 41 29086ft 403kts
29-Jan-20 09:15 34.409227 -117.308402 42 29084ft 403kts
29-Jan-20 09:16 34.479808 -117.204002 42 29082ft 398kts
29-Jan-20 09:17 34.550017 -117.099953 41 29081ft 398kts
29-Jan-20 09:18 34.619899 -116.996050 41 29079ft 396kts
29-Jan-20 09:19 34.689405 -116.892407 41 29077ft 394kts
29-Jan-20 09:20 34.758302 -116.789371 41 29095ft 393kts
29-Jan-20 09:21 34.824065 -116.690546 40 28062ft 362kts
29-Jan-20 09:22 34.895017 -116.605143 29 27011ft 350kts
29-Jan-20 09:23 34.970490 -116.532138 29 25940ft 346kts
29-Jan-20 09:24 35.045321 -116.459470 29 24853ft 340kts
29-Jan-20 09:25 35.117667 -116.385229 34 23632ft 342kts
29-Jan-20 09:26 35.183868 -116.301843 35 22483ft 340kts
29-Jan-20 09:27 35.249787 -116.219181 35 21314ft 337kts
29-Jan-20 09:28 35.312504 -116.140335 35 20134ft 319kts
29-Jan-20 09:29 35.374557 -116.062149 35 18953ft 318kts
29-Jan-20 09:30 35.436139 -115.984403 36 17756ft 319kts
29-Jan-20 09:31 35.498295 -115.905719 37 16555ft 319kts
29-Jan-20 09:32 35.558651 -115.826051 44 15362ft 323kts
29-Jan-20 09:33 35.611099 -115.734285 47 14021ft 320kts
29-Jan-20 09:34 35.662347 -115.642957 49 12324ft 326kts
29-Jan-20 09:35 35.712390 -115.553555 50 10938ft 297kts
29-Jan-20 09:36 35.757033 -115.473913 50 10116ft 267kts
29-Jan-20 09:37 35.798530 -115.399807 50 8910ft 260kts
29-Jan-20 09:38 35.837787 -115.329577 50 7693ft 235kts
29-Jan-20 09:39 35.882061 -115.278882 31 6761ft 205kts
29-Jan-20 09:40 35.930150 -115.251629 17 5649ft 184kts
29-Jan-20 09:41 35.973574 -115.228384 20 4736ft 162kts
29-Jan-20 09:42 36.012282 -115.206356 23 3768ft 150kts
29-Jan-20 09:43 36.050238 -115.184365 20 2908ft 147kts
29-Jan-20 09:44 36.085617 -115.164539 26 2148ft 107kts
29-Jan-20 09:45 36.093307 -115.158690 106 2109ft 0kts
29-Jan-20 09:46 36.092385 -115.156053 115 2102ft 21kts
29-Jan-20 09:47 36.086855 -115.158026 204 2125ft 22kts
29-Jan-20 09:48 36.083497 -115.156032 143 2124ft 14kts
29-Jan-20 09:49 36.084815 -115.153925 334 2113ft 0kts
29-Jan-20 09:50 36.084815 -115.153925 334 2113ft 0kts
29-Jan-20 09:51 36.084815 -115.153925 334 2113ft 0kts

Navigation Log

Ident Type
Flight plan parsing failed, navigation log unavailable